Seafalcon — 9HA2814 — position and weather

sailwx.info

Track history (hours):
 
Tides and Currents Weather Stations Pressure Air Temp Water Temp Dewpoint Dewpoint Depression Visibility Wind Speed Wind Dir Waves Ship Positions

Seafalcon

Last reported at 2015-Jan-26 01:28 UTC. Time now 2015-Jan-26 02:22 UTC.
Position N 36°57' E 013°36'.

Length 250 m; draft 11.6 m.

Type: Ship (hazmat cat A). MMSI: 256078000.

Date/timePositionNaut miles runAvg speedWind from/ knotsBaromVisibWave heightAir tempDewpointWater temp
2015-Jan-26 01:28N 36°57' E 013°36'1112.6
2015-Jan-26 00:33N 36°52' E 013°49'1212.4
2015-Jan-25 23:33N 36°47' E 014°04'1212.3
2015-Jan-25 22:34N 36°42' E 014°18'1212.4
2015-Jan-25 21:33N 36°38' E 014°32'  
2015-Jan-23 08:07N 40°25' E 026°43'6 8.9
2015-Jan-23 07:27N 40°28' E 026°50'  
2015-Jan-17 18:06N 41°26' E 028°59'911.7
2015-Jan-17 17:20N 41°27' E 029°11'911.8
2015-Jan-17 16:33N 41°28' E 029°23'1211.8
2015-Jan-17 15:33N 41°32' E 029°38'24712.2
2015-Jan-16 19:22N 43°24' E 034°36'13512.4
2015-Jan-16 08:32N 44°25' E 037°23'1212.7
2015-Jan-16 07:33N 44°31' E 037°38'1212.4
2015-Jan-16 06:33N 44°39' E 037°51'3 3.2
2015-Jan-16 05:33N 44°42' E 037°50'0 0.0
2015-Jan-16 04:33N 44°42' E 037°50'0 0.0
2015-Jan-16 03:33N 44°42' E 037°50'0 0.0
2015-Jan-16 02:33N 44°42' E 037°50'0 0.0
2015-Jan-16 01:30N 44°42' E 037°50'  
Track history (hours):
 
Tides and Currents Weather Stations Pressure Air Temp Water Temp Dewpoint Dewpoint Depression Visibility Wind Speed Wind Dir Waves Ship Positions

Seafalcon

Last reported at 2015-Jan-26 01:28 UTC. Time now 2015-Jan-26 02:22 UTC.
Position N 36°57' E 013°36'.

Length 250 m; draft 11.6 m.

Type: Ship (hazmat cat A). MMSI: 256078000.

Date/timePositionNaut miles runAvg speedWind from/ knotsBaromVisibWave heightAir tempDewpointWater temp
2015-Jan-26 01:28N 36°57' E 013°36'1112.6
2015-Jan-26 00:33N 36°52' E 013°49'1212.4
2015-Jan-25 23:33N 36°47' E 014°04'1212.3
2015-Jan-25 22:34N 36°42' E 014°18'1212.4
2015-Jan-25 21:33N 36°38' E 014°32'  
2015-Jan-23 08:07N 40°25' E 026°43'6 8.9
2015-Jan-23 07:27N 40°28' E 026°50'  
2015-Jan-17 18:06N 41°26' E 028°59'911.7
2015-Jan-17 17:20N 41°27' E 029°11'911.8
2015-Jan-17 16:33N 41°28' E 029°23'1211.8
2015-Jan-17 15:33N 41°32' E 029°38'24712.2
2015-Jan-16 19:22N 43°24' E 034°36'13512.4
2015-Jan-16 08:32N 44°25' E 037°23'1212.7
2015-Jan-16 07:33N 44°31' E 037°38'1212.4
2015-Jan-16 06:33N 44°39' E 037°51'3 3.2
2015-Jan-16 05:33N 44°42' E 037°50'0 0.0
2015-Jan-16 04:33N 44°42' E 037°50'0 0.0
2015-Jan-16 03:33N 44°42' E 037°50'0 0.0
2015-Jan-16 02:33N 44°42' E 037°50'0 0.0
2015-Jan-16 01:30N 44°42' E 037°50'  

Dump ship's entire track history